Time;durP1;ratioP1;P1;durP2;ratioP2;P2;SDS_P1;SDS_P2;PMS_P1;PMS_P2;Temp;Humidity;BMP_temperature;BMP_pressure;BME280_temperature;BME280_humidity;BME280_pressure;Samples;Min_cycle;Max_cycle;Signal;HPM_P1;HPM_P2
2022/07/08 00:00:34;;;;;;;;;;;26.60;37.00;;;;;;5097206;28;1142;-37
2022/07/08 00:03:01;;;;;;;;;;;26.60;37.00;;;;;;5097190;28;1051;-36
2022/07/08 00:05:27;;;;;;;;;;;26.60;36.90;;;;;;5097634;28;1022;-36
2022/07/08 00:07:54;;;;;;;;;;;26.60;36.90;;;;;;5096628;28;987;-37
2022/07/08 00:10:22;;;;;;;;;;;26.60;36.90;;;;;;5096805;28;1452;-34
2022/07/08 00:12:49;;;;;;;;;;;26.60;37.00;;;;;;5096427;28;1905;-34
2022/07/08 00:15:16;;;;;;;;;;;26.60;37.10;;;;;;5095932;28;1023;-35
2022/07/08 00:17:42;;;;;;;;;;;26.60;37.00;;;;;;5095998;28;889;-34
2022/07/08 00:20:10;;;;;;;;;;;26.60;37.00;;;;;;5097214;28;987;-34
2022/07/08 00:22:37;;;;;;;;;;;26.60;37.00;;;;;;5097695;28;972;-34
2022/07/08 00:25:08;;;;;;;;;;;26.60;36.90;;;;;;5096710;28;1116;-34
2022/07/08 00:27:36;;;;;;;;;;;26.70;37.00;;;;;;5097864;28;956;-34
2022/07/08 00:30:04;;;;;;;;;;;26.70;37.00;;;;;;5097119;28;968;-34
2022/07/08 00:32:30;;;;;;;;;;;26.70;36.90;;;;;;5096401;28;1022;-34
2022/07/08 00:34:57;;;;;;;;;;;26.70;37.00;;;;;;5098146;28;1902;-34
2022/07/08 00:37:24;;;;;;;;;;;26.70;36.90;;;;;;5098153;28;935;-34
2022/07/08 00:39:50;;;;;;;;;;;26.70;37.00;;;;;;5098294;28;975;-34
2022/07/08 00:42:17;;;;;;;;;;;26.70;38.10;;;;;;5097182;28;1008;-34
2022/07/08 00:44:45;;;;;;;;;;;26.70;37.00;;;;;;5097935;28;1016;-34
2022/07/08 00:47:12;;;;;;;;;;;26.70;37.00;;;;;;5097710;28;1008;-34
2022/07/08 00:49:39;;;;;;;;;;;26.70;37.10;;;;;;5096430;28;1003;-35
2022/07/08 00:52:07;;;;;;;;;;;26.70;37.10;;;;;;5097699;28;1020;-34
2022/07/08 00:54:34;;;;;;;;;;;26.70;37.10;;;;;;5097906;28;1964;-34
2022/07/08 00:57:01;;;;;;;;;;;26.70;37.00;;;;;;5096558;28;1790;-34
2022/07/08 00:59:28;;;;;;;;;;;26.70;36.90;;;;;;5097738;28;985;-34
2022/07/08 01:01:57;;;;;;;;;;;26.70;37.00;;;;;;5099168;28;1169;-34
2022/07/08 01:04:24;;;;;;;;;;;26.70;37.00;;;;;;5100757;28;972;-34
2022/07/08 01:06:50;;;;;;;;;;;26.70;37.00;;;;;;5100881;28;973;-34
2022/07/08 01:09:17;;;;;;;;;;;26.70;36.90;;;;;;5101819;28;1022;-37
2022/07/08 01:11:46;;;;;;;;;;;26.70;37.00;;;;;;5100373;28;1015;-37
2022/07/08 01:14:13;;;;;;;;;;;26.60;37.10;;;;;;5100385;28;1897;-37
2022/07/08 01:16:39;;;;;;;;;;;26.70;37.10;;;;;;5101124;28;1015;-37
2022/07/08 01:19:07;;;;;;;;;;;26.70;37.10;;;;;;5101647;28;940;-37
2022/07/08 01:21:35;;;;;;;;;;;26.70;37.10;;;;;;5099789;28;1010;-37
2022/07/08 01:24:02;;;;;;;;;;;26.70;37.20;;;;;;5100529;28;1799;-36
2022/07/08 01:26:29;;;;;;;;;;;26.70;37.20;;;;;;5100962;28;980;-39
2022/07/08 01:28:56;;;;;;;;;;;26.60;37.20;;;;;;5100601;28;928;-39
2022/07/08 01:31:23;;;;;;;;;;;26.70;37.20;;;;;;5100051;28;995;-37
2022/07/08 01:33:49;;;;;;;;;;;26.70;37.20;;;;;;5100794;28;1898;-39
2022/07/08 01:36:16;;;;;;;;;;;26.80;37.10;;;;;;5100826;28;936;-40
2022/07/08 01:38:44;;;;;;;;;;;26.80;37.10;;;;;;5099626;28;1207;-39
2022/07/08 01:41:11;;;;;;;;;;;26.70;37.00;;;;;;5100511;28;1002;-39
2022/07/08 01:43:38;;;;;;;;;;;26.80;37.10;;;;;;5100914;28;968;-39
2022/07/08 01:46:04;;;;;;;;;;;26.80;37.10;;;;;;5099483;28;1024;-38
2022/07/08 01:48:31;;;;;;;;;;;26.80;37.10;;;;;;5100423;28;964;-38
2022/07/08 01:50:58;;;;;;;;;;;26.80;37.00;;;;;;5100348;28;870;-38
2022/07/08 01:53:25;;;;;;;;;;;26.90;37.10;;;;;;5100230;28;1909;-38
2022/07/08 01:55:53;;;;;;;;;;;26.80;37.00;;;;;;5098819;28;945;-39
2022/07/08 01:58:19;;;;;;;;;;;26.90;37.00;;;;;;5099121;28;1098;-39
2022/07/08 02:00:46;;;;;;;;;;;26.80;37.10;;;;;;5098833;28;916;-39
2022/07/08 02:03:13;;;;;;;;;;;26.80;37.20;;;;;;5099729;28;1103;-38
2022/07/08 02:05:39;;;;;;;;;;;26.70;37.20;;;;;;5099272;28;919;-38
2022/07/08 02:08:06;;;;;;;;;;;26.70;37.20;;;;;;5100434;28;1007;-40
2022/07/08 02:12:18;;;;;;;;;;;26.80;37.20;;;;;;5100243;28;1035;-38
2022/07/08 02:13:21;;;;;;;;;;;26.80;37.20;;;;;;5097906;28;1996;-39
2022/07/08 02:15:48;;;;;;;;;;;26.80;37.10;;;;;;5099999;28;921;-39
2022/07/08 02:18:14;;;;;;;;;;;26.70;37.10;;;;;;5100229;28;892;-38
2022/07/08 02:20:41;;;;;;;;;;;26.80;37.10;;;;;;5099413;28;976;-38
2022/07/08 02:23:08;;;;;;;;;;;26.70;37.10;;;;;;5098483;28;940;-38
2022/07/08 02:25:34;;;;;;;;;;;26.80;37.10;;;;;;5099707;28;1229;-40
2022/07/08 02:28:01;;;;;;;;;;;26.80;37.20;;;;;;5099428;28;948;-39
2022/07/08 02:30:30;;;;;;;;;;;26.80;37.10;;;;;;5098061;28;1005;-39
2022/07/08 02:32:56;;;;;;;;;;;26.80;37.10;;;;;;5099047;28;936;-36
2022/07/08 02:35:23;;;;;;;;;;;26.70;37.00;;;;;;5099554;28;1974;-37
2022/07/08 02:37:50;;;;;;;;;;;26.80;37.10;;;;;;5099336;28;1002;-36
2022/07/08 02:43:30;;;;;;;;;;;26.70;37.20;;;;;;5098750;28;991;-36
2022/07/08 02:45:58;;;;;;;;;;;26.80;37.10;;;;;;5098714;28;920;-36
2022/07/08 02:48:24;;;;;;;;;;;26.70;37.00;;;;;;5098020;28;939;-38
2022/07/08 02:50:51;;;;;;;;;;;26.70;37.10;;;;;;5097377;28;980;-37
2022/07/08 02:53:18;;;;;;;;;;;26.70;37.00;;;;;;5097736;28;997;-36
2022/07/08 02:55:44;;;;;;;;;;;26.70;37.00;;;;;;5097098;28;1967;-36
2022/07/08 02:58:12;;;;;;;;;;;26.80;37.00;;;;;;5097614;28;933;-36
2022/07/08 03:00:39;;;;;;;;;;;26.80;37.10;;;;;;5093898;28;989;-36
2022/07/08 03:03:07;;;;;;;;;;;26.80;37.10;;;;;;5097245;28;1272;-36
2022/07/08 03:05:34;;;;;;;;;;;26.70;37.10;;;;;;5096589;28;1118;-36
2022/07/08 03:08:00;;;;;;;;;;;26.80;37.10;;;;;;5098197;28;916;-37
2022/07/08 03:10:27;;;;;;;;;;;26.80;37.10;;;;;;5097939;28;1787;-37
2022/07/08 03:12:54;;;;;;;;;;;26.70;37.10;;;;;;5098113;28;917;-37
2022/07/08 03:15:20;;;;;;;;;;;26.80;37.20;;;;;;5097106;28;1898;-37
2022/07/08 03:17:47;;;;;;;;;;;26.80;37.10;;;;;;5099189;28;932;-37
2022/07/08 03:20:15;;;;;;;;;;;26.80;37.10;;;;;;5097896;28;980;-36
2022/07/08 03:22:42;;;;;;;;;;;26.80;37.10;;;;;;5097736;28;860;-36
2022/07/08 03:25:09;;;;;;;;;;;26.70;37.00;;;;;;5095346;28;1828;-36
2022/07/08 03:27:36;;;;;;;;;;;26.70;37.10;;;;;;5097376;28;1007;-36
2022/07/08 03:30:03;;;;;;;;;;;26.80;37.10;;;;;;5096837;28;999;-37
2022/07/08 03:32:30;;;;;;;;;;;26.80;37.10;;;;;;5095924;28;980;-36
2022/07/08 03:34:57;;;;;;;;;;;26.80;37.10;;;;;;5097588;28;1977;-36
2022/07/08 03:37:25;;;;;;;;;;;26.80;37.10;;;;;;5098309;28;921;-37
2022/07/08 03:39:53;;;;;;;;;;;26.70;37.10;;;;;;5096288;28;1343;-36
2022/07/08 03:42:19;;;;;;;;;;;26.80;37.10;;;;;;5096786;28;1015;-36
2022/07/08 03:44:45;;;;;;;;;;;26.80;38.20;;;;;;5097852;28;928;-36
2022/07/08 03:47:12;;;;;;;;;;;26.80;37.10;;;;;;5097746;28;1001;-36
2022/07/08 03:49:39;;;;;;;;;;;26.70;37.20;;;;;;5097616;28;992;-36
2022/07/08 03:52:06;;;;;;;;;;;26.70;37.20;;;;;;5097080;28;952;-36
2022/07/08 03:54:34;;;;;;;;;;;26.70;37.20;;;;;;5098343;28;1901;-36
2022/07/08 03:57:01;;;;;;;;;;;26.70;37.20;;;;;;5098103;28;984;-36
2022/07/08 03:59:28;;;;;;;;;;;26.70;37.20;;;;;;5097347;28;1006;-36
2022/07/08 04:01:54;;;;;;;;;;;26.80;37.20;;;;;;5096919;28;1118;-36
2022/07/08 04:04:21;;;;;;;;;;;26.70;37.20;;;;;;5097633;28;1750;-36
2022/07/08 04:06:48;;;;;;;;;;;26.70;37.20;;;;;;5097526;28;936;-36
2022/07/08 04:09:14;;;;;;;;;;;26.60;37.30;;;;;;5097360;28;970;-36
2022/07/08 04:11:42;;;;;;;;;;;26.70;37.30;;;;;;5097383;28;967;-36
2022/07/08 04:14:09;;;;;;;;;;;26.70;37.10;;;;;;5096997;28;1906;-36
2022/07/08 04:16:36;;;;;;;;;;;26.70;37.20;;;;;;5096397;28;948;-36
2022/07/08 04:19:03;;;;;;;;;;;26.60;37.30;;;;;;5096581;28;1026;-36
2022/07/08 04:21:30;;;;;;;;;;;26.70;37.30;;;;;;5096853;28;885;-36
2022/07/08 04:23:58;;;;;;;;;;;26.70;37.30;;;;;;5096959;28;1007;-36
2022/07/08 04:26:29;;;;;;;;;;;26.70;37.10;;;;;;5095993;28;948;-36
2022/07/08 04:28:57;;;;;;;;;;;26.70;37.20;;;;;;5095747;28;1030;-36
2022/07/08 04:31:24;;;;;;;;;;;26.70;37.30;;;;;;5097519;28;905;-37
2022/07/08 04:33:50;;;;;;;;;;;26.70;37.20;;;;;;5096524;28;961;-36
2022/07/08 04:36:17;;;;;;;;;;;26.80;37.20;;;;;;5096767;28;1983;-36
2022/07/08 04:38:44;;;;;;;;;;;26.80;37.20;;;;;;5095702;28;977;-36
2022/07/08 04:41:10;;;;;;;;;;;26.70;37.10;;;;;;5099934;28;897;-36
2022/07/08 04:43:38;;;;;;;;;;;26.80;37.10;;;;;;5100236;28;956;-38
2022/07/08 04:46:06;;;;;;;;;;;26.70;37.10;;;;;;5099262;28;951;-38
2022/07/08 04:48:33;;;;;;;;;;;26.70;37.20;;;;;;5098690;28;923;-34
2022/07/08 04:50:59;;;;;;;;;;;26.60;37.30;;;;;;5099836;28;987;-36
2022/07/08 04:53:27;;;;;;;;;;;26.70;37.20;;;;;;5099015;28;971;-34
2022/07/08 04:55:53;;;;;;;;;;;26.60;37.20;;;;;;5099080;28;1902;-34
2022/07/08 04:58:20;;;;;;;;;;;26.70;37.20;;;;;;5098726;28;1011;-34
2022/07/08 05:00:47;;;;;;;;;;;26.70;37.30;;;;;;5099432;28;980;-34
2022/07/08 05:03:15;;;;;;;;;;;26.60;37.20;;;;;;5099662;28;1200;-34
2022/07/08 05:05:42;;;;;;;;;;;26.60;37.20;;;;;;5099536;28;880;-34
2022/07/08 05:08:09;;;;;;;;;;;26.70;38.30;;;;;;5098285;28;1016;-35
2022/07/08 05:10:35;;;;;;;;;;;26.70;37.20;;;;;;5098978;28;1013;-34
2022/07/08 05:13:05;;;;;;;;;;;26.70;37.20;;;;;;5098733;28;1004;-34
2022/07/08 05:15:32;;;;;;;;;;;26.70;37.10;;;;;;5099011;28;1984;-34
2022/07/08 05:17:59;;;;;;;;;;;26.70;37.00;;;;;;5097547;28;947;-34
2022/07/08 05:20:27;;;;;;;;;;;26.70;37.00;;;;;;5095534;28;984;-34
2022/07/08 05:22:53;;;;;;;;;;;26.70;37.00;;;;;;5097937;28;980;-34
2022/07/08 05:25:20;;;;;;;;;;;26.70;37.10;;;;;;5098288;28;981;-34
2022/07/08 05:27:47;;;;;;;;;;;26.70;37.10;;;;;;5097718;28;1549;-34
2022/07/08 05:30:14;;;;;;;;;;;26.60;37.30;;;;;;5098206;28;978;-34
2022/07/08 05:32:41;;;;;;;;;;;26.60;37.30;;;;;;5098471;28;897;-34
2022/07/08 05:35:10;;;;;;;;;;;26.60;37.20;;;;;;5097760;28;1906;-34
2022/07/08 05:37:39;;;;;;;;;;;26.70;37.20;;;;;;5097550;28;1769;-34
2022/07/08 05:40:07;;;;;;;;;;;26.60;37.30;;;;;;5097565;28;1007;-36
2022/07/08 05:42:34;;;;;;;;;;;26.60;37.30;;;;;;5098659;28;997;-34
2022/07/08 05:45:01;;;;;;;;;;;26.60;37.30;;;;;;5098058;28;1002;-35
2022/07/08 05:47:27;;;;;;;;;;;26.70;37.30;;;;;;5096134;28;979;-36
2022/07/08 05:49:55;;;;;;;;;;;26.70;37.10;;;;;;5097155;28;967;-34
2022/07/08 05:52:21;;;;;;;;;;;26.70;37.30;;;;;;5097740;28;1011;-34
2022/07/08 05:54:50;;;;;;;;;;;26.70;37.20;;;;;;5093320;28;1977;-34
2022/07/08 05:57:17;;;;;;;;;;;26.70;37.20;;;;;;5092934;28;858;-34
2022/07/08 05:59:43;;;;;;;;;;;26.70;37.10;;;;;;5098022;28;984;-34
2022/07/08 06:02:10;;;;;;;;;;;26.70;37.00;;;;;;5096381;28;1245;-34
2022/07/08 06:04:37;;;;;;;;;;;26.60;37.20;;;;;;5096616;28;1043;-35
2022/07/08 06:07:04;;;;;;;;;;;26.50;37.30;;;;;;5097548;28;1008;-35
2022/07/08 06:09:31;;;;;;;;;;;26.60;37.30;;;;;;5096177;28;892;-34
2022/07/08 06:11:59;;;;;;;;;;;26.60;37.20;;;;;;5096112;28;972;-34
2022/07/08 06:14:26;;;;;;;;;;;26.60;37.20;;;;;;5097102;28;891;-34
2022/07/08 06:16:52;;;;;;;;;;;26.60;37.10;;;;;;5092769;28;1980;-34
2022/07/08 06:19:19;;;;;;;;;;;26.60;37.10;;;;;;5096590;28;1035;-34
2022/07/08 06:21:46;;;;;;;;;;;26.60;37.20;;;;;;5096311;28;956;-34
2022/07/08 06:24:13;;;;;;;;;;;26.70;37.20;;;;;;5096586;28;1057;-34
2022/07/08 06:26:39;;;;;;;;;;;26.70;37.20;;;;;;5096489;28;949;-34
2022/07/08 06:29:08;;;;;;;;;;;26.70;37.10;;;;;;5096070;28;900;-34
2022/07/08 06:31:36;;;;;;;;;;;26.60;37.00;;;;;;5095561;28;1000;-34
2022/07/08 06:34:03;;;;;;;;;;;26.70;37.10;;;;;;5095662;28;1008;-35
2022/07/08 06:36:31;;;;;;;;;;;26.70;37.10;;;;;;5096504;28;1906;-34
2022/07/08 06:38:57;;;;;;;;;;;26.60;37.10;;;;;;5095870;28;966;-34
2022/07/08 06:41:24;;;;;;;;;;;26.60;37.30;;;;;;5095823;28;1043;-34
2022/07/08 06:43:51;;;;;;;;;;;26.60;37.10;;;;;;5095802;28;936;-34
2022/07/08 06:46:19;;;;;;;;;;;26.60;37.20;;;;;;5095761;28;921;-34
2022/07/08 06:48:46;;;;;;;;;;;26.60;37.30;;;;;;5096162;28;1023;-34
2022/07/08 06:51:12;;;;;;;;;;;26.60;37.10;;;;;;5095830;28;980;-34
2022/07/08 06:56:24;;;;;;;;;;;26.60;37.00;;;;;;5095268;28;1894;-34
2022/07/08 06:58:51;;;;;;;;;;;26.70;37.10;;;;;;5095518;28;1011;-35
2022/07/08 07:01:18;;;;;;;;;;;26.70;37.00;;;;;;5095006;28;1012;-34
2022/07/08 07:03:46;;;;;;;;;;;26.70;37.00;;;;;;5095105;28;1099;-34
2022/07/08 07:06:13;;;;;;;;;;;26.70;36.90;;;;;;5095365;28;927;-34
2022/07/08 07:08:40;;;;;;;;;;;26.60;37.10;;;;;;5095101;28;1011;-34
2022/07/08 07:11:07;;;;;;;;;;;26.60;37.10;;;;;;5094886;28;1003;-34
2022/07/08 07:13:33;;;;;;;;;;;26.60;36.90;;;;;;5094236;28;885;-35
2022/07/08 07:16:00;;;;;;;;;;;26.70;36.80;;;;;;5094685;28;1902;-34
2022/07/08 07:18:27;;;;;;;;;;;26.60;36.60;;;;;;5095301;28;1028;-33
2022/07/08 07:20:55;;;;;;;;;;;26.60;36.80;;;;;;5095327;28;939;-34
2022/07/08 07:23:21;;;;;;;;;;;26.60;37.00;;;;;;5094980;28;988;-34
2022/07/08 07:25:48;;;;;;;;;;;26.60;36.90;;;;;;5094832;28;989;-34
2022/07/08 07:28:15;;;;;;;;;;;26.60;36.80;;;;;;5094734;28;1017;-34
2022/07/08 07:30:41;;;;;;;;;;;26.60;36.60;;;;;;5094601;28;1213;-36
2022/07/08 07:33:08;;;;;;;;;;;26.60;36.60;;;;;;5095766;28;1005;-37
2022/07/08 07:35:35;;;;;;;;;;;26.50;36.80;;;;;;5095449;28;1913;-36
2022/07/08 07:38:04;;;;;;;;;;;26.60;36.80;;;;;;5094800;28;964;-36
2022/07/08 07:40:30;;;;;;;;;;;26.50;36.90;;;;;;5094295;28;1013;-36
2022/07/08 07:42:57;;;;;;;;;;;26.50;36.80;;;;;;5094410;28;989;-37
2022/07/08 07:45:24;;;;;;;;;;;26.60;36.80;;;;;;5094583;28;1023;-36
2022/07/08 07:47:51;;;;;;;;;;;26.60;36.80;;;;;;5094126;28;1012;-37
2022/07/08 07:50:17;;;;;;;;;;;26.60;36.70;;;;;;5094572;28;984;-36
2022/07/08 07:52:44;;;;;;;;;;;26.50;36.70;;;;;;5093726;28;980;-36
2022/07/08 07:55:12;;;;;;;;;;;26.60;36.60;;;;;;5094417;28;1914;-36
2022/07/08 07:57:39;;;;;;;;;;;26.60;36.60;;;;;;5094490;28;995;-36
2022/07/08 08:00:08;;;;;;;;;;;26.60;36.60;;;;;;5093458;28;995;-36
2022/07/08 08:02:35;;;;;;;;;;;26.50;36.70;;;;;;5090388;28;1047;-36
2022/07/08 08:05:01;;;;;;;;;;;26.40;36.90;;;;;;5091781;28;1010;-36
2022/07/08 08:07:28;;;;;;;;;;;26.60;36.80;;;;;;5093796;28;945;-36
2022/07/08 08:09:55;;;;;;;;;;;26.50;36.80;;;;;;5093631;28;1023;-36
2022/07/08 08:12:23;;;;;;;;;;;26.40;37.00;;;;;;5093530;28;980;-36
2022/07/08 08:14:50;;;;;;;;;;;26.40;37.10;;;;;;5093304;28;864;-36
2022/07/08 08:17:17;;;;;;;;;;;26.50;37.10;;;;;;5093475;28;1910;-37
2022/07/08 08:19:44;;;;;;;;;;;26.50;37.00;;;;;;5093341;28;1009;-36
2022/07/08 08:22:10;;;;;;;;;;;26.50;36.90;;;;;;5093695;28;1018;-37
2022/07/08 08:24:37;;;;;;;;;;;26.50;36.90;;;;;;5093832;28;1011;-36
2022/07/08 08:27:04;;;;;;;;;;;26.60;36.70;;;;;;5093147;28;980;-37
2022/07/08 08:29:33;;;;;;;;;;;26.60;36.90;;;;;;5093593;28;1050;-36
2022/07/08 08:31:59;;;;;;;;;;;26.50;36.90;;;;;;5093431;28;960;-37
2022/07/08 08:34:26;;;;;;;;;;;26.50;36.90;;;;;;5093832;28;988;-37
2022/07/08 08:36:53;;;;;;;;;;;26.50;36.70;;;;;;5093415;28;1905;-36
2022/07/08 08:39:20;;;;;;;;;;;26.50;36.80;;;;;;5094040;28;1035;-36
2022/07/08 08:41:46;;;;;;;;;;;26.60;36.80;;;;;;5092672;28;1011;-36
2022/07/08 08:44:13;;;;;;;;;;;26.60;36.80;;;;;;5092684;28;1144;-37
2022/07/08 08:46:42;;;;;;;;;;;26.60;36.70;;;;;;5093478;28;874;-37
2022/07/08 08:49:10;;;;;;;;;;;26.60;36.50;;;;;;5092023;28;984;-37
2022/07/08 08:51:38;;;;;;;;;;;26.60;36.50;;;;;;5091576;28;912;-37
2022/07/08 08:54:05;;;;;;;;;;;26.60;36.40;;;;;;5092608;28;1012;-38
2022/07/08 08:56:32;;;;;;;;;;;26.60;36.70;;;;;;5092994;28;1967;-38
2022/07/08 08:58:59;;;;;;;;;;;26.60;36.80;;;;;;5093263;28;1035;-39
2022/07/08 09:01:28;;;;;;;;;;;26.60;36.70;;;;;;5092298;28;1115;-40
2022/07/08 09:03:58;;;;;;;;;;;26.60;36.90;;;;;;5092670;28;1075;-37
2022/07/08 09:06:25;;;;;;;;;;;26.70;36.90;;;;;;5092563;28;947;-40
2022/07/08 09:08:52;;;;;;;;;;;26.70;36.80;;;;;;5092697;28;1407;-39
2022/07/08 09:11:19;;;;;;;;;;;26.70;37.00;;;;;;5093121;28;869;-38
2022/07/08 09:14:07;;;;;;;;;;;26.70;36.70;;;;;;5092254;28;1030;-38
2022/07/08 09:16:33;;;;;;;;;;;26.70;36.80;;;;;;5092594;28;1898;-38
2022/07/08 09:19:13;;;;;;;;;;;26.70;37.00;;;;;;5093145;28;1016;-39
2022/07/08 09:21:40;;;;;;;;;;;26.70;37.00;;;;;;5092172;28;940;-38
2022/07/08 09:24:17;;;;;;;;;;;26.70;36.90;;;;;;5095576;28;983;-38
2022/07/08 09:26:44;;;;;;;;;;;26.70;37.00;;;;;;5097676;28;932;-38
2022/07/08 09:29:11;;;;;;;;;;;26.60;37.00;;;;;;5095746;28;1024;-40
2022/07/08 09:31:38;;;;;;;;;;;26.70;37.80;;;;;;5096288;28;928;-39
2022/07/08 09:34:10;;;;;;;;;;;26.60;37.00;;;;;;5096251;28;972;-39
2022/07/08 09:36:45;;;;;;;;;;;26.50;37.10;;;;;;5096204;28;1975;-38
2022/07/08 09:39:16;;;;;;;;;;;26.50;37.10;;;;;;5096500;28;1044;-41
2022/07/08 09:41:46;;;;;;;;;;;26.50;37.00;;;;;;5096884;28;1023;-38
2022/07/08 09:44:14;;;;;;;;;;;26.40;37.10;;;;;;5096925;28;991;-38
2022/07/08 09:46:41;;;;;;;;;;;26.40;37.30;;;;;;5095771;28;984;-39
2022/07/08 09:49:08;;;;;;;;;;;26.40;38.50;;;;;;5095589;28;1024;-37
2022/07/08 09:51:37;;;;;;;;;;;26.50;36.60;;;;;;5096096;28;1049;-38
2022/07/08 09:54:10;;;;;;;;;;;26.40;36.90;;;;;;5096090;28;905;-38
2022/07/08 09:56:37;;;;;;;;;;;26.50;36.90;;;;;;5095736;28;1977;-41
2022/07/08 09:59:04;;;;;;;;;;;26.40;37.00;;;;;;5095346;28;1000;-38
2022/07/08 10:01:31;;;;;;;;;;;26.40;37.20;;;;;;5094943;28;1043;-38
2022/07/08 10:03:58;;;;;;;;;;;26.40;37.10;;;;;;5094242;28;995;-40
2022/07/08 10:06:24;;;;;;;;;;;26.20;37.30;;;;;;5095027;28;968;-39
2022/07/08 10:08:52;;;;;;;;;;;26.40;37.20;;;;;;5095059;28;1786;-41
2022/07/08 10:11:20;;;;;;;;;;;26.40;37.00;;;;;;5095845;28;916;-40
2022/07/08 10:13:47;;;;;;;;;;;26.50;37.00;;;;;;5095532;28;1008;-38
2022/07/08 10:16:14;;;;;;;;;;;26.40;37.10;;;;;;5095085;28;1910;-39
2022/07/08 10:18:42;;;;;;;;;;;26.50;37.10;;;;;;5094422;28;1007;-39
2022/07/08 10:21:10;;;;;;;;;;;26.60;37.90;;;;;;5094792;28;944;-38
2022/07/08 10:23:38;;;;;;;;;;;26.40;36.70;;;;;;5095000;28;1078;-39
2022/07/08 10:26:07;;;;;;;;;;;26.40;36.90;;;;;;5094282;28;866;-40
2022/07/08 10:28:35;;;;;;;;;;;26.40;36.80;;;;;;5093846;28;1345;-40
2022/07/08 10:31:02;;;;;;;;;;;26.60;36.80;;;;;;5095744;28;988;-37
2022/07/08 10:33:29;;;;;;;;;;;26.70;36.00;;;;;;5094496;28;967;-42
2022/07/08 10:36:04;;;;;;;;;;;26.60;36.30;;;;;;5094809;28;905;-39
2022/07/08 10:38:32;;;;;;;;;;;26.60;36.60;;;;;;5090061;28;980;-39
2022/07/08 10:41:04;;;;;;;;;;;26.60;36.40;;;;;;5094561;28;996;-39
2022/07/08 10:43:31;;;;;;;;;;;26.60;36.50;;;;;;5094407;28;1026;-39
2022/07/08 10:46:00;;;;;;;;;;;26.70;36.40;;;;;;5094695;28;941;-39
2022/07/08 10:48:27;;;;;;;;;;;26.60;36.50;;;;;;5094874;28;1007;-43
2022/07/08 10:50:53;;;;;;;;;;;26.40;36.70;;;;;;5094840;28;1007;-42
2022/07/08 10:53:20;;;;;;;;;;;26.40;36.90;;;;;;5094598;28;1512;-43
2022/07/08 10:55:47;;;;;;;;;;;26.40;37.00;;;;;;5094495;28;936;-38
2022/07/08 10:58:14;;;;;;;;;;;26.60;36.80;;;;;;5096101;28;1984;-40
2022/07/08 11:00:41;;;;;;;;;;;26.50;36.80;;;;;;5095724;28;960;-40
2022/07/08 11:03:11;;;;;;;;;;;26.40;36.70;;;;;;5095740;28;1035;-39
2022/07/08 11:05:38;;;;;;;;;;;26.50;36.80;;;;;;5095925;28;964;-41
2022/07/08 11:08:24;;;;;;;;;;;26.50;36.90;;;;;;5095455;28;876;-42
2022/07/08 11:10:52;;;;;;;;;;;26.50;36.80;;;;;;5095985;28;1028;-40
2022/07/08 11:13:19;;;;;;;;;;;26.40;36.90;;;;;;5094788;28;1014;-39
2022/07/08 11:15:46;;;;;;;;;;;26.50;37.00;;;;;;5096492;28;932;-40
2022/07/08 11:18:21;;;;;;;;;;;26.50;37.10;;;;;;5096254;28;1977;-39
2022/07/08 11:20:47;;;;;;;;;;;26.40;37.10;;;;;;5095955;28;952;-39
2022/07/08 11:23:15;;;;;;;;;;;26.40;37.10;;;;;;5093560;28;1016;-41
2022/07/08 11:25:41;;;;;;;;;;;26.50;37.20;;;;;;5093017;28;940;-40
2022/07/08 11:28:18;;;;;;;;;;;26.50;37.20;;;;;;5092598;28;996;-37
2022/07/08 11:30:45;;;;;;;;;;;26.50;37.20;;;;;;5093726;28;946;-38
2022/07/08 11:33:12;;;;;;;;;;;26.50;37.20;;;;;;5094356;28;997;-38
2022/07/08 11:35:40;;;;;;;;;;;26.50;37.20;;;;;;5093622;28;1028;-38
2022/07/08 11:38:07;;;;;;;;;;;26.50;37.40;;;;;;5094328;28;1986;-38
2022/07/08 11:40:40;;;;;;;;;;;26.40;37.30;;;;;;5093107;28;1067;-39
2022/07/08 11:43:07;;;;;;;;;;;26.40;37.30;;;;;;5092998;28;921;-39
2022/07/08 11:45:33;;;;;;;;;;;26.40;37.20;;;;;;5093499;28;1009;-39
2022/07/08 11:48:05;;;;;;;;;;;26.40;37.40;;;;;;5093733;28;972;-39
2022/07/08 11:50:32;;;;;;;;;;;26.40;37.60;;;;;;5091561;28;1115;-41
2022/07/08 11:53:00;;;;;;;;;;;26.50;37.50;;;;;;5093229;28;976;-39
2022/07/08 11:55:27;;;;;;;;;;;26.40;37.50;;;;;;5091929;28;1014;-40
2022/07/08 11:57:59;;;;;;;;;;;26.40;37.70;;;;;;5093181;28;1984;-42
2022/07/08 12:00:26;;;;;;;;;;;26.50;38.10;;;;;;5093206;28;1115;-39
2022/07/08 12:02:54;;;;;;;;;;;26.50;37.70;;;;;;5092484;28;1177;-39
2022/07/08 12:05:22;;;;;;;;;;;26.50;37.80;;;;;;5093910;28;976;-47
2022/07/08 12:07:49;;;;;;;;;;;26.50;38.70;;;;;;5092771;28;955;-39
2022/07/08 12:10:22;;;;;;;;;;;26.70;37.80;;;;;;5093679;28;974;-41
2022/07/08 12:12:56;;;;;;;;;;;26.80;37.60;;;;;;5092829;28;975;-39
2022/07/08 12:15:23;;;;;;;;;;;26.90;37.30;;;;;;5093345;28;1631;-42
2022/07/08 12:17:56;;;;;;;;;;;26.70;37.30;;;;;;5091635;28;1984;-41
2022/07/08 12:20:31;;;;;;;;;;;26.90;37.40;;;;;;5092756;28;913;-39
2022/07/08 12:22:58;;;;;;;;;;;27.00;37.20;;;;;;5092877;28;997;-39
2022/07/08 12:25:26;;;;;;;;;;;27.10;37.20;;;;;;5092523;28;1097;-39
2022/07/08 12:27:58;;;;;;;;;;;27.20;37.20;;;;;;5092042;28;944;-40
2022/07/08 12:30:30;;;;;;;;;;;27.20;37.10;;;;;;5092659;28;900;-42
2022/07/08 12:32:59;;;;;;;;;;;27.30;37.10;;;;;;5092491;28;999;-39
2022/07/08 12:35:29;;;;;;;;;;;27.20;37.20;;;;;;5092713;28;1043;-42
2022/07/08 12:38:03;;;;;;;;;;;27.30;37.40;;;;;;5092649;28;1906;-41
2022/07/08 12:40:36;;;;;;;;;;;27.40;37.30;;;;;;5089038;28;993;-38
2022/07/08 12:43:03;;;;;;;;;;;27.40;37.20;;;;;;5092354;28;996;-41
2022/07/08 12:45:30;;;;;;;;;;;27.30;37.10;;;;;;5092705;28;985;-43
2022/07/08 12:47:57;;;;;;;;;;;27.30;37.40;;;;;;5092225;28;877;-40
2022/07/08 12:50:24;;;;;;;;;;;27.20;37.30;;;;;;5093071;28;1009;-38
2022/07/08 12:52:51;;;;;;;;;;;27.30;37.40;;;;;;5092293;28;913;-36
2022/07/08 12:55:18;;;;;;;;;;;27.40;37.10;;;;;;5092493;28;996;-38
2022/07/08 12:57:47;;;;;;;;;;;27.30;37.20;;;;;;5092930;28;1906;-37
2022/07/08 13:00:14;;;;;;;;;;;27.30;37.10;;;;;;5096914;28;992;-39
2022/07/08 13:02:42;;;;;;;;;;;27.20;36.90;;;;;;5095684;28;1229;-39
2022/07/08 13:05:09;;;;;;;;;;;27.20;37.10;;;;;;5096037;28;1010;-38
2022/07/08 13:07:36;;;;;;;;;;;27.00;37.10;;;;;;5096492;28;984;-38
2022/07/08 13:10:03;;;;;;;;;;;27.00;37.40;;;;;;5093324;28;944;-38
2022/07/08 13:12:30;;;;;;;;;;;27.10;37.50;;;;;;5092623;28;945;-37
2022/07/08 13:14:58;;;;;;;;;;;27.00;37.40;;;;;;5096583;28;1027;-36
2022/07/08 13:17:25;;;;;;;;;;;27.10;37.50;;;;;;5095188;28;1910;-36
2022/07/08 13:19:52;;;;;;;;;;;27.10;37.60;;;;;;5095529;28;1002;-36
2022/07/08 13:22:18;;;;;;;;;;;27.20;37.50;;;;;;5096074;28;924;-36
2022/07/08 13:24:45;;;;;;;;;;;27.20;37.70;;;;;;5097160;28;961;-36
2022/07/08 13:27:12;;;;;;;;;;;27.20;37.50;;;;;;5094531;28;936;-39
2022/07/08 13:29:39;;;;;;;;;;;27.30;37.40;;;;;;5095698;28;1854;-37
2022/07/08 13:32:07;;;;;;;;;;;27.40;37.20;;;;;;5095715;28;961;-37
2022/07/08 13:34:34;;;;;;;;;;;27.50;37.30;;;;;;5095567;28;987;-37
2022/07/08 13:37:01;;;;;;;;;;;27.50;37.10;;;;;;5095634;28;2009;-37
2022/07/08 13:39:28;;;;;;;;;;;27.50;37.20;;;;;;5096549;28;1039;-37
2022/07/08 13:41:55;;;;;;;;;;;27.40;37.30;;;;;;5096634;28;1022;-38
2022/07/08 13:44:22;;;;;;;;;;;27.40;37.70;;;;;;5096536;28;1410;-42
2022/07/08 13:46:49;;;;;;;;;;;27.30;37.80;;;;;;5096562;28;1572;-41
2022/07/08 13:49:17;;;;;;;;;;;27.40;37.70;;;;;;5095473;28;981;-41
2022/07/08 13:51:44;;;;;;;;;;;27.40;37.70;;;;;;5095599;28;965;-43
2022/07/08 13:54:11;;;;;;;;;;;27.40;37.70;;;;;;5096573;28;947;-40
2022/07/08 13:56:38;;;;;;;;;;;27.50;37.60;;;;;;5095811;28;1063;-43
2022/07/08 13:59:05;;;;;;;;;;;27.40;37.60;;;;;;5095949;28;1977;-43
2022/07/08 14:01:32;;;;;;;;;;;27.40;37.70;;;;;;5095200;28;1070;-41
2022/07/08 14:03:59;;;;;;;;;;;27.30;37.80;;;;;;5095999;28;1013;-42
2022/07/08 14:06:28;;;;;;;;;;;27.30;37.90;;;;;;5095245;28;1004;-42
2022/07/08 14:08:55;;;;;;;;;;;27.20;37.80;;;;;;5095785;28;940;-40
2022/07/08 14:11:22;;;;;;;;;;;27.30;37.90;;;;;;5095429;28;1119;-41
2022/07/08 14:13:49;;;;;;;;;;;27.30;38.00;;;;;;5095351;28;939;-41
2022/07/08 14:16:17;;;;;;;;;;;27.20;38.10;;;;;;5096005;28;967;-40
2022/07/08 14:18:44;;;;;;;;;;;27.30;38.10;;;;;;5095397;28;1976;-41
2022/07/08 14:21:11;;;;;;;;;;;27.10;38.40;;;;;;5096007;28;1064;-43
2022/07/08 14:23:39;;;;;;;;;;;27.30;38.20;;;;;;5096059;28;1011;-44
2022/07/08 14:26:07;;;;;;;;;;;27.40;38.20;;;;;;5096311;28;936;-40
2022/07/08 14:28:33;;;;;;;;;;;27.50;38.10;;;;;;5095748;28;860;-40
2022/07/08 14:31:00;;;;;;;;;;;27.40;38.00;;;;;;5091705;28;984;-41
2022/07/08 14:33:28;;;;;;;;;;;27.50;38.10;;;;;;5096170;28;1000;-38
2022/07/08 14:35:54;;;;;;;;;;;27.40;38.00;;;;;;5096403;28;1060;-38
2022/07/08 14:38:21;;;;;;;;;;;27.50;38.00;;;;;;5095943;28;1913;-38
2022/07/08 14:40:50;;;;;;;;;;;27.40;38.20;;;;;;5095737;28;904;-38
2022/07/08 14:43:16;;;;;;;;;;;27.50;38.30;;;;;;5095695;28;1013;-40